Time;durP1;ratioP1;P1;durP2;ratioP2;P2;SDS_P1;SDS_P2;PMS_P1;PMS_P2;Temp;Humidity;BMP_temperature;BMP_pressure;BME280_temperature;BME280_humidity;BME280_pressure;Samples;Min_cycle;Max_cycle;Signal;HPM_P1;HPM_P2
2024/02/27 00:01:59;;;;;;;4.20;3.80;;;;;;;;;;5056562;28;20429;-80
2024/02/27 00:04:25;;;;;;;3.70;3.40;;;;;;;;;;5056522;28;20382;-80
2024/02/27 00:06:54;;;;;;;4.35;3.92;;;;;;;;;;5055469;28;20461;-80
2024/02/27 00:09:20;;;;;;;3.58;3.28;;;;;;;;;;5055421;28;20386;-80
2024/02/27 00:11:47;;;;;;;4.75;3.70;;;;;;;;;;5055580;28;20464;-80
2024/02/27 00:14:13;;;;;;;4.15;3.75;;;;;;;;;;5056033;28;20484;-79
2024/02/27 00:16:39;;;;;;;4.60;4.10;;;;;;;;;;5053417;28;20404;-81
2024/02/27 00:19:05;;;;;;;4.20;3.80;;;;;;;;;;5035531;28;20535;-80
2024/02/27 00:21:31;;;;;;;4.97;3.80;;;;;;;;;;5035446;28;20407;-80
2024/02/27 00:23:57;;;;;;;5.18;3.90;;;;;;;;;;5035648;28;20737;-80
2024/02/27 00:26:23;;;;;;;3.80;3.50;;;;;;;;;;5035736;28;20391;-81
2024/02/27 00:28:49;;;;;;;3.70;3.40;;;;;;;;;;5035302;28;20448;-81
2024/02/27 00:31:16;;;;;;;3.78;3.47;;;;;;;;;;5035258;28;20391;-81
2024/02/27 00:33:42;;;;;;;3.95;3.60;;;;;;;;;;5035652;28;20757;-80
2024/02/27 00:36:08;;;;;;;4.00;3.60;;;;;;;;;;5035303;28;20967;-80
2024/02/27 00:38:36;;;;;;;3.65;3.22;;;;;;;;;;5034692;28;20817;-81
2024/02/27 00:41:03;;;;;;;3.67;3.20;;;;;;;;;;5035286;28;20379;-80
2024/02/27 00:43:29;;;;;;;3.53;3.08;;;;;;;;;;5034619;28;20379;-80
2024/02/27 00:45:55;;;;;;;3.42;3.10;;;;;;;;;;5035342;28;20389;-80
2024/02/27 00:48:21;;;;;;;3.70;3.00;;;;;;;;;;5035299;28;20406;-80
2024/02/27 00:50:48;;;;;;;3.53;3.00;;;;;;;;;;5035356;28;20391;-80
2024/02/27 00:53:14;;;;;;;3.47;3.17;;;;;;;;;;5035156;28;20375;-80
2024/02/27 00:55:40;;;;;;;4.10;2.88;;;;;;;;;;5034740;28;21221;-80
2024/02/27 00:58:06;;;;;;;4.03;3.00;;;;;;;;;;5034591;28;20410;-80
2024/02/27 01:00:32;;;;;;;3.60;2.90;;;;;;;;;;5034931;28;20383;-80
2024/02/27 01:02:58;;;;;;;2.97;2.78;;;;;;;;;;5035083;28;20410;-80
2024/02/27 01:05:24;;;;;;;2.80;2.60;;;;;;;;;;5034994;28;20395;-80
2024/02/27 01:07:50;;;;;;;3.17;2.80;;;;;;;;;;5034618;28;20402;-80
2024/02/27 01:10:16;;;;;;;3.35;2.60;;;;;;;;;;5034914;28;20383;-80
2024/02/27 01:12:42;;;;;;;3.50;2.60;;;;;;;;;;5049376;28;20386;-80
2024/02/27 01:15:09;;;;;;;3.08;2.40;;;;;;;;;;5055118;28;20519;-80
2024/02/27 01:17:35;;;;;;;2.50;2.17;;;;;;;;;;5054929;28;20382;-80
2024/02/27 01:20:00;;;;;;;2.40;2.20;;;;;;;;;;5054934;28;20389;-80
2024/02/27 01:22:27;;;;;;;2.53;2.33;;;;;;;;;;5054756;28;20716;-80
2024/02/27 01:24:54;;;;;;;2.78;2.30;;;;;;;;;;5054754;28;20373;-80
2024/02/27 01:27:20;;;;;;;2.15;1.95;;;;;;;;;;5054563;28;20426;-80
2024/02/27 01:29:46;;;;;;;3.33;2.30;;;;;;;;;;5054654;28;20412;-80
2024/02/27 01:32:12;;;;;;;2.45;2.25;;;;;;;;;;5054793;28;20856;-81
2024/02/27 01:34:38;;;;;;;2.42;2.10;;;;;;;;;;5055091;28;20374;-80
2024/02/27 01:37:04;;;;;;;2.20;2.00;;;;;;;;;;5054275;28;20941;-80
2024/02/27 01:39:30;;;;;;;2.70;2.05;;;;;;;;;;5054377;28;20423;-80
2024/02/27 01:41:56;;;;;;;2.70;2.13;;;;;;;;;;5053816;28;20378;-80
2024/02/27 01:44:22;;;;;;;2.03;1.70;;;;;;;;;;5054072;28;20747;-80
2024/02/27 01:46:48;;;;;;;2.00;1.70;;;;;;;;;;5053880;28;20390;-81
2024/02/27 01:49:15;;;;;;;2.20;1.70;;;;;;;;;;5054342;28;20398;-80
2024/02/27 01:51:42;;;;;;;2.80;2.10;;;;;;;;;;5054294;28;20393;-80
2024/02/27 01:54:08;;;;;;;1.77;1.67;;;;;;;;;;5055923;28;20385;-81
2024/02/27 01:56:34;;;;;;;2.20;2.00;;;;;;;;;;5058242;28;20902;-81
2024/02/27 01:59:01;;;;;;;2.10;1.90;;;;;;;;;;5058310;28;20393;-80
2024/02/27 02:01:28;;;;;;;1.77;1.65;;;;;;;;;;5058505;28;20423;-81
2024/02/27 02:03:55;;;;;;;2.38;1.85;;;;;;;;;;5058595;28;20502;-80
2024/02/27 02:06:22;;;;;;;2.28;1.90;;;;;;;;;;5058058;28;20859;-80
2024/02/27 02:08:48;;;;;;;2.47;1.75;;;;;;;;;;5058647;28;20377;-81
2024/02/27 02:11:14;;;;;;;2.80;1.90;;;;;;;;;;5058894;28;20431;-80
2024/02/27 02:13:40;;;;;;;1.88;1.67;;;;;;;;;;5058613;28;20475;-80
2024/02/27 02:16:06;;;;;;;13.95;2.15;;;;;;;;;;5038872;28;20893;-80
2024/02/27 02:18:32;;;;;;;3.17;1.80;;;;;;;;;;5038596;28;20736;-81
2024/02/27 02:21:00;;;;;;;2.75;1.80;;;;;;;;;;5038927;28;20466;-80
2024/02/27 02:23:26;;;;;;;2.17;1.92;;;;;;;;;;5038506;28;20383;-80
2024/02/27 02:25:52;;;;;;;2.33;1.70;;;;;;;;;;5038681;28;20469;-81
2024/02/27 02:28:18;;;;;;;2.47;2.00;;;;;;;;;;5038991;28;20427;-80
2024/02/27 02:30:44;;;;;;;2.17;1.80;;;;;;;;;;5038991;28;20423;-81
2024/02/27 02:33:11;;;;;;;1.73;1.55;;;;;;;;;;5038767;28;20386;-81
2024/02/27 02:35:37;;;;;;;2.20;1.55;;;;;;;;;;5038593;28;20410;-80
2024/02/27 02:38:03;;;;;;;1.73;1.63;;;;;;;;;;5038301;28;20383;-80
2024/02/27 02:40:31;;;;;;;2.47;1.70;;;;;;;;;;5038685;28;20382;-80
2024/02/27 02:42:57;;;;;;;3.10;1.80;;;;;;;;;;5038501;28;20413;-81
2024/02/27 02:45:23;;;;;;;2.30;1.70;;;;;;;;;;5038251;28;20714;-82
2024/02/27 02:47:49;;;;;;;1.88;1.58;;;;;;;;;;5037929;28;20415;-80
2024/02/27 02:50:15;;;;;;;2.10;1.70;;;;;;;;;;5038133;28;20387;-80
2024/02/27 02:52:43;;;;;;;3.22;1.98;;;;;;;;;;5038191;28;20737;-83
2024/02/27 02:55:09;;;;;;;3.60;3.08;;;;;;;;;;5037434;28;20383;-81
2024/02/27 02:57:36;;;;;;;23.63;16.17;;;;;;;;;;5037708;28;20442;-81
2024/02/27 03:00:05;;;;;;;3.35;2.42;;;;;;;;;;5037781;28;20518;-82
2024/02/27 03:02:31;;;;;;;24.90;16.90;;;;;;;;;;5037668;28;20383;-81
2024/02/27 03:04:58;;;;;;;3.90;3.50;;;;;;;;;;5047085;28;20377;-82
2024/02/27 03:07:24;;;;;;;2.63;2.42;;;;;;;;;;5057005;28;20369;-82
2024/02/27 03:09:51;;;;;;;2.15;1.95;;;;;;;;;;5058102;28;20812;-80
2024/02/27 03:12:18;;;;;;;1.93;1.80;;;;;;;;;;5057647;28;20729;-81
2024/02/27 03:14:46;;;;;;;2.30;2.10;;;;;;;;;;5057915;28;20378;-82
2024/02/27 03:17:16;;;;;;;2.65;2.22;;;;;;;;;;5057967;28;20763;-82
2024/02/27 03:19:42;;;;;;;3.50;2.30;;;;;;;;;;5057325;28;20423;-81
2024/02/27 03:22:09;;;;;;;2.40;2.20;;;;;;;;;;5057589;28;20724;-82
2024/02/27 03:24:35;;;;;;;2.30;2.10;;;;;;;;;;5057674;28;20381;-82
2024/02/27 03:27:01;;;;;;;2.15;1.95;;;;;;;;;;5057655;28;20519;-81
2024/02/27 03:29:27;;;;;;;3.50;2.23;;;;;;;;;;5057319;28;20913;-82
2024/02/27 03:31:53;;;;;;;2.05;1.92;;;;;;;;;;5057487;28;20392;-79
2024/02/27 03:34:19;;;;;;;2.53;2.20;;;;;;;;;;5057292;28;20393;-80
2024/02/27 03:36:45;;;;;;;2.60;2.40;;;;;;;;;;5057404;28;20500;-80
2024/02/27 03:39:13;;;;;;;2.83;2.38;;;;;;;;;;5057058;28;20421;-80
2024/02/27 03:41:39;;;;;;;2.35;2.15;;;;;;;;;;5056786;28;20366;-80
2024/02/27 03:44:05;;;;;;;2.40;2.13;;;;;;;;;;5057339;28;20416;-81
2024/02/27 03:46:31;;;;;;;2.38;2.05;;;;;;;;;;5056510;28;20385;-80
2024/02/27 03:48:57;;;;;;;2.33;2.13;;;;;;;;;;5057096;28;20420;-82
2024/02/27 03:51:23;;;;;;;2.47;2.20;;;;;;;;;;5057217;28;20513;-82
2024/02/27 03:53:49;;;;;;;3.00;2.00;;;;;;;;;;5056872;28;20395;-80
2024/02/27 03:56:15;;;;;;;2.30;2.10;;;;;;;;;;5056480;28;20501;-80
2024/02/27 03:58:41;;;;;;;2.53;1.95;;;;;;;;;;5056933;28;20739;-81
2024/02/27 04:01:07;;;;;;;2.20;2.00;;;;;;;;;;5056937;28;20382;-82
2024/02/27 04:03:33;;;;;;;2.90;1.80;;;;;;;;;;5056433;28;20744;-81
2024/02/27 04:06:00;;;;;;;2.15;1.95;;;;;;;;;;5056734;28;20393;-81
2024/02/27 04:08:26;;;;;;;2.05;1.73;;;;;;;;;;5056436;28;20744;-81
2024/02/27 04:10:52;;;;;;;1.83;1.65;;;;;;;;;;5056579;28;20400;-81
2024/02/27 04:13:18;;;;;;;2.72;1.88;;;;;;;;;;5056444;28;20864;-81
2024/02/27 04:15:46;;;;;;;1.70;1.60;;;;;;;;;;5056306;28;20409;-82
2024/02/27 04:18:12;;;;;;;2.43;1.67;;;;;;;;;;5054212;28;20377;-80
2024/02/27 04:20:38;;;;;;;1.67;1.58;;;;;;;;;;5056052;28;20423;-80
2024/02/27 04:23:04;;;;;;;1.80;1.70;;;;;;;;;;5056863;28;20717;-80
2024/02/27 04:25:31;;;;;;;2.13;1.70;;;;;;;;;;5057167;28;20468;-80
2024/02/27 04:27:57;;;;;;;2.08;1.80;;;;;;;;;;5055994;28;20464;-81
2024/02/27 04:30:23;;;;;;;2.50;1.88;;;;;;;;;;5056379;28;20463;-81
2024/02/27 04:32:49;;;;;;;1.80;1.60;;;;;;;;;;5056251;28;20381;-81
2024/02/27 04:35:15;;;;;;;1.63;1.42;;;;;;;;;;5056269;28;20417;-81
2024/02/27 04:37:41;;;;;;;1.88;1.58;;;;;;;;;;5056028;28;20404;-82
2024/02/27 04:40:09;;;;;;;1.90;1.60;;;;;;;;;;5056346;28;20832;-81
2024/02/27 04:42:34;;;;;;;2.00;1.73;;;;;;;;;;5053422;28;20484;-82
2024/02/27 04:45:01;;;;;;;2.05;1.85;;;;;;;;;;5050967;28;20445;-80
2024/02/27 04:47:27;;;;;;;1.73;1.60;;;;;;;;;;5047343;28;20399;-80
2024/02/27 04:49:53;;;;;;;1.85;1.40;;;;;;;;;;5055968;28;20361;-80
2024/02/27 04:52:19;;;;;;;1.87;1.70;;;;;;;;;;5055269;28;20381;-79
2024/02/27 04:54:45;;;;;;;2.03;1.83;;;;;;;;;;5056124;28;20404;-80
2024/02/27 04:57:11;;;;;;;2.58;2.00;;;;;;;;;;5054291;28;20902;-79
2024/02/27 04:59:37;;;;;;;2.15;1.88;;;;;;;;;;5055585;28;20384;-80
2024/02/27 05:02:03;;;;;;;2.38;1.70;;;;;;;;;;5055291;28;20374;-79
2024/02/27 05:04:29;;;;;;;2.03;1.92;;;;;;;;;;5044780;28;20462;-80
2024/02/27 05:06:55;;;;;;;2.38;2.10;;;;;;;;;;5036346;28;20894;-80
2024/02/27 05:09:22;;;;;;;1.85;1.75;;;;;;;;;;5054511;28;20381;-80
2024/02/27 05:11:48;;;;;;;2.08;1.88;;;;;;;;;;5054743;28;20869;-80
2024/02/27 05:14:14;;;;;;;2.40;2.20;;;;;;;;;;5054680;28;20386;-80
2024/02/27 05:16:40;;;;;;;2.40;2.20;;;;;;;;;;5054476;28;20436;-81
2024/02/27 05:19:08;;;;;;;2.95;2.60;;;;;;;;;;5054353;28;20397;-81
2024/02/27 05:21:34;;;;;;;2.60;2.30;;;;;;;;;;5054352;28;20374;-80
2024/02/27 05:24:00;;;;;;;2.67;2.30;;;;;;;;;;5054554;28;20835;-80
2024/02/27 05:26:26;;;;;;;2.58;2.38;;;;;;;;;;5054491;28;20873;-81
2024/02/27 05:28:53;;;;;;;3.05;2.38;;;;;;;;;;5054290;28;20393;-80
2024/02/27 05:31:25;;;;;;;3.50;2.47;;;;;;;;;;5054661;28;20383;-81
2024/02/27 05:33:54;;;;;;;2.60;2.17;;;;;;;;;;5054421;28;20389;-80
2024/02/27 05:36:20;;;;;;;2.30;2.10;;;;;;;;;;5054006;28;20833;-79
2024/02/27 05:38:46;;;;;;;2.42;2.22;;;;;;;;;;5054175;28;20393;-81
2024/02/27 05:41:13;;;;;;;2.55;2.35;;;;;;;;;;5054676;28;20377;-81
2024/02/27 05:43:39;;;;;;;2.40;2.20;;;;;;;;;;5054644;28;20377;-81
2024/02/27 05:46:06;;;;;;;2.63;2.43;;;;;;;;;;5054563;28;20388;-80
2024/02/27 05:48:35;;;;;;;2.78;2.40;;;;;;;;;;5053872;28;20440;-80
2024/02/27 05:51:01;;;;;;;2.80;2.20;;;;;;;;;;5054751;28;20479;-80
2024/02/27 05:53:29;;;;;;;2.58;2.35;;;;;;;;;;5054824;28;20717;-81
2024/02/27 05:55:56;;;;;;;3.10;2.30;;;;;;;;;;5054301;28;20918;-81
2024/02/27 05:58:23;;;;;;;3.17;2.63;;;;;;;;;;5054419;28;20377;-80
2024/02/27 06:00:50;;;;;;;2.90;2.30;;;;;;;;;;5054822;28;20439;-80
2024/02/27 06:03:16;;;;;;;3.40;2.15;;;;;;;;;;5054358;28;20373;-80
2024/02/27 06:05:42;;;;;;;2.58;2.17;;;;;;;;;;5054230;28;20378;-80
2024/02/27 06:08:08;;;;;;;2.63;2.30;;;;;;;;;;5055055;28;20870;-81
2024/02/27 06:10:34;;;;;;;3.45;2.25;;;;;;;;;;5055279;28;20377;-82
2024/02/27 06:13:00;;;;;;;2.30;2.03;;;;;;;;;;5054837;28;20392;-81
2024/02/27 06:15:26;;;;;;;2.27;2.07;;;;;;;;;;5054809;28;20405;-82
2024/02/27 06:17:52;;;;;;;2.50;2.30;;;;;;;;;;5054780;28;20382;-82
2024/02/27 06:23:03;;;;;;;3.15;2.30;;;;;;;;;;5035187;28;20509;-79
2024/02/27 06:25:29;;;;;;;2.47;2.20;;;;;;;;;;5034866;28;20726;-79
2024/02/27 06:27:54;;;;;;;2.95;2.10;;;;;;;;;;5034948;28;20386;-80
2024/02/27 06:30:20;;;;;;;2.20;2.00;;;;;;;;;;5035266;28;20387;-80
2024/02/27 06:32:46;;;;;;;3.00;2.27;;;;;;;;;;5034636;28;20394;-80
2024/02/27 06:35:12;;;;;;;3.50;2.30;;;;;;;;;;5035101;28;20386;-81
2024/02/27 06:37:41;;;;;;;3.00;2.70;;;;;;;;;;5034562;28;20706;-79
2024/02/27 06:40:07;;;;;;;2.30;2.10;;;;;;;;;;5034615;28;20922;-81
2024/02/27 06:42:41;;;;;;;2.85;2.40;;;;;;;;;;5038630;28;20407;-81
2024/02/27 06:45:08;;;;;;;2.53;2.33;;;;;;;;;;5038599;28;20426;-81
2024/02/27 06:47:34;;;;;;;2.90;2.50;;;;;;;;;;5038273;28;20441;-80
2024/02/27 06:50:00;;;;;;;2.42;2.22;;;;;;;;;;5037536;28;20852;-80
2024/02/27 06:52:26;;;;;;;2.50;2.30;;;;;;;;;;5038186;28;20945;-81
2024/02/27 06:54:52;;;;;;;2.40;2.20;;;;;;;;;;5038728;28;20439;-82
2024/02/27 06:57:18;;;;;;;2.70;2.03;;;;;;;;;;5038403;28;20663;-80
2024/02/27 06:59:44;;;;;;;2.28;2.00;;;;;;;;;;5037874;28;20830;-81
2024/02/27 07:02:10;;;;;;;2.97;2.10;;;;;;;;;;5037643;28;20506;-81
2024/02/27 07:04:36;;;;;;;2.25;2.05;;;;;;;;;;5041067;28;20410;-83
2024/02/27 07:07:03;;;;;;;2.78;2.20;;;;;;;;;;5057822;28;20859;-79
2024/02/27 07:09:30;;;;;;;2.10;1.90;;;;;;;;;;5057979;28;20389;-81
2024/02/27 07:11:56;;;;;;;1.77;1.63;;;;;;;;;;5058167;28;20401;-81
2024/02/27 07:14:22;;;;;;;2.07;1.93;;;;;;;;;;5057964;28;20738;-80
2024/02/27 07:16:48;;;;;;;2.47;1.80;;;;;;;;;;5055914;28;20412;-81
2024/02/27 07:19:19;;;;;;;2.20;2.00;;;;;;;;;;5058147;28;20405;-81
2024/02/27 07:21:45;;;;;;;1.80;1.70;;;;;;;;;;5058142;28;20406;-81
2024/02/27 07:24:11;;;;;;;1.88;1.77;;;;;;;;;;5057701;28;20378;-82
2024/02/27 07:26:37;;;;;;;1.85;1.75;;;;;;;;;;5058126;28;20389;-82
2024/02/27 07:29:04;;;;;;;2.20;1.85;;;;;;;;;;5057821;28;20476;-82
2024/02/27 07:31:30;;;;;;;2.23;1.70;;;;;;;;;;5057516;28;20747;-82
2024/02/27 07:33:56;;;;;;;2.60;1.60;;;;;;;;;;5058473;28;20385;-81
2024/02/27 07:36:22;;;;;;;2.00;1.60;;;;;;;;;;5058396;28;20397;-81
2024/02/27 07:38:48;;;;;;;1.50;1.40;;;;;;;;;;5057155;28;20386;-81
2024/02/27 07:41:14;;;;;;;1.63;1.52;;;;;;;;;;5056995;28;20434;-81
2024/02/27 07:43:40;;;;;;;2.35;1.90;;;;;;;;;;5056678;28;20386;-82
2024/02/27 07:46:07;;;;;;;2.03;1.83;;;;;;;;;;5056296;28;20921;-82
2024/02/27 07:48:33;;;;;;;2.20;1.75;;;;;;;;;;5054807;28;20891;-82
2024/02/27 07:50:59;;;;;;;1.85;1.70;;;;;;;;;;5057087;28;20477;-82
2024/02/27 07:53:25;;;;;;;2.13;1.85;;;;;;;;;;5056105;28;20413;-82
2024/02/27 07:55:51;;;;;;;2.25;2.05;;;;;;;;;;5056916;28;20421;-82
2024/02/27 07:58:16;;;;;;;2.33;2.10;;;;;;;;;;5056733;28;20381;-82
2024/02/27 08:00:42;;;;;;;2.23;1.90;;;;;;;;;;5056847;28;20732;-81
2024/02/27 08:03:09;;;;;;;2.25;2.05;;;;;;;;;;5056785;28;20443;-82
2024/02/27 08:05:34;;;;;;;3.13;2.22;;;;;;;;;;5056709;28;20385;-81
2024/02/27 08:08:00;;;;;;;2.33;2.13;;;;;;;;;;5055874;28;21002;-81
2024/02/27 08:10:26;;;;;;;2.47;2.28;;;;;;;;;;5056768;28;20405;-81
2024/02/27 08:12:53;;;;;;;2.35;2.15;;;;;;;;;;5056390;28;20442;-81
2024/02/27 08:15:19;;;;;;;2.50;2.30;;;;;;;;;;5055639;28;20389;-82
2024/02/27 08:17:45;;;;;;;2.35;2.15;;;;;;;;;;5054724;28;20389;-81
2024/02/27 08:20:12;;;;;;;2.28;2.08;;;;;;;;;;5040333;28;20384;-81
2024/02/27 08:22:38;;;;;;;2.38;2.17;;;;;;;;;;5036592;28;20394;-81
2024/02/27 08:25:04;;;;;;;2.60;2.10;;;;;;;;;;5036023;28;20780;-81
2024/02/27 08:27:30;;;;;;;3.40;2.43;;;;;;;;;;5035875;28;20372;-81
2024/02/27 08:29:57;;;;;;;2.47;2.28;;;;;;;;;;5035418;28;20375;-82
2024/02/27 08:32:24;;;;;;;2.92;2.47;;;;;;;;;;5036277;28;20380;-82
2024/02/27 08:34:50;;;;;;;2.95;2.50;;;;;;;;;;5036185;28;20737;-82
2024/02/27 08:37:16;;;;;;;2.80;2.60;;;;;;;;;;5035534;28;20462;-82
2024/02/27 08:39:42;;;;;;;3.92;3.20;;;;;;;;;;5035746;28;20757;-81
2024/02/27 08:42:08;;;;;;;4.30;3.90;;;;;;;;;;5035769;28;20429;-81
2024/02/27 08:44:34;;;;;;;4.27;3.87;;;;;;;;;;5035673;28;20376;-82
2024/02/27 08:47:02;;;;;;;4.88;4.38;;;;;;;;;;5035455;28;20383;-81
2024/02/27 08:49:28;;;;;;;5.07;4.57;;;;;;;;;;5035567;28;20441;-81
2024/02/27 08:51:54;;;;;;;5.57;4.82;;;;;;;;;;5035428;28;20391;-81
2024/02/27 08:54:20;;;;;;;6.13;3.70;;;;;;;;;;5035865;28;20390;-82
2024/02/27 08:56:46;;;;;;;4.05;3.60;;;;;;;;;;5037658;28;20414;-81
2024/02/27 08:59:12;;;;;;;3.47;3.10;;;;;;;;;;5034997;28;20796;-81
2024/02/27 09:01:38;;;;;;;3.00;2.70;;;;;;;;;;5035287;28;20474;-81
2024/02/27 09:04:04;;;;;;;3.03;2.72;;;;;;;;;;5034606;28;20880;-81
2024/02/27 09:06:30;;;;;;;3.92;2.63;;;;;;;;;;5035205;28;20387;-81
2024/02/27 09:08:56;;;;;;;3.33;2.28;;;;;;;;;;5034437;28;20403;-80
2024/02/27 09:11:22;;;;;;;2.55;2.35;;;;;;;;;;5035710;28;20382;-81
2024/02/27 09:13:48;;;;;;;2.50;2.30;;;;;;;;;;5034690;28;20432;-81
2024/02/27 09:16:14;;;;;;;2.75;2.50;;;;;;;;;;5034502;28;20881;-81
2024/02/27 09:18:43;;;;;;;3.78;2.83;;;;;;;;;;5034463;28;20400;-81
2024/02/27 09:21:09;;;;;;;2.80;2.40;;;;;;;;;;5034370;28;20386;-81
2024/02/27 09:23:35;;;;;;;2.78;2.35;;;;;;;;;;5034903;28;20394;-81
2024/02/27 09:26:01;;;;;;;3.10;2.28;;;;;;;;;;5034001;28;20383;-81
2024/02/27 09:28:27;;;;;;;2.60;2.40;;;;;;;;;;5034089;28;20387;-80
2024/02/27 09:30:53;;;;;;;2.40;2.20;;;;;;;;;;5035106;28;20379;-81
2024/02/27 09:33:19;;;;;;;2.95;2.42;;;;;;;;;;5033523;28;20453;-79
2024/02/27 09:35:45;;;;;;;4.30;3.90;;;;;;;;;;5033652;28;20438;-80
2024/02/27 09:38:11;;;;;;;6.82;6.22;;;;;;;;;;5035113;28;20379;-79
2024/02/27 09:40:37;;;;;;;9.73;8.88;;;;;;;;;;5052900;28;20389;-79
2024/02/27 09:43:06;;;;;;;6.37;5.80;;;;;;;;;;5051761;28;20404;-78
2024/02/27 09:45:32;;;;;;;4.40;4.00;;;;;;;;;;5052653;28;20472;-79
2024/02/27 09:48:00;;;;;;;3.17;2.87;;;;;;;;;;5052015;28;20854;-79
2024/02/27 09:50:26;;;;;;;3.35;3.05;;;;;;;;;;5052788;28;20430;-79
2024/02/27 09:52:53;;;;;;;6.20;3.30;;;;;;;;;;5052577;28;20454;-79
2024/02/27 09:55:20;;;;;;;6.40;3.22;;;;;;;;;;5052307;28;20377;-79
2024/02/27 09:57:47;;;;;;;6.22;4.50;;;;;;;;;;5052910;28;20938;-79
2024/02/27 10:00:14;;;;;;;3.78;3.42;;;;;;;;;;5052420;28;20373;-79
2024/02/27 10:02:41;;;;;;;6.68;5.72;;;;;;;;;;5052349;28;20381;-79
2024/02/27 10:05:08;;;;;;;25.85;13.80;;;;;;;;;;5052858;28;20778;-79
2024/02/27 10:07:34;;;;;;;6.05;5.00;;;;;;;;;;5052442;28;20468;-79
2024/02/27 10:10:00;;;;;;;4.70;4.10;;;;;;;;;;5052578;28;20378;-79
2024/02/27 10:12:27;;;;;;;4.82;4.35;;;;;;;;;;5052736;28;20917;-79
2024/02/27 10:14:53;;;;;;;4.70;4.28;;;;;;;;;;5052952;28;20423;-79
2024/02/27 10:17:19;;;;;;;5.20;4.70;;;;;;;;;;5056214;28;20420;-79
2024/02/27 10:19:46;;;;;;;5.27;4.77;;;;;;;;;;5055047;28;20389;-79
2024/02/27 10:22:12;;;;;;;6.10;5.03;;;;;;;;;;5056657;28;20378;-79
2024/02/27 10:24:38;;;;;;;5.47;4.97;;;;;;;;;;5056572;28;20392;-79
2024/02/27 10:27:07;;;;;;;5.53;4.93;;;;;;;;;;5056675;28;20397;-79
2024/02/27 10:29:33;;;;;;;6.55;5.78;;;;;;;;;;5056656;28;20388;-79
2024/02/27 10:32:00;;;;;;;5.93;5.33;;;;;;;;;;5056716;28;20420;-79
2024/02/27 10:34:27;;;;;;;5.40;4.90;;;;;;;;;;5056399;28;20382;-79
2024/02/27 10:37:00;;;;;;;6.43;5.82;;;;;;;;;;5056201;28;20397;-79
2024/02/27 10:39:26;;;;;;;6.50;5.90;;;;;;;;;;5056304;28;20389;-79
2024/02/27 10:41:53;;;;;;;6.50;5.70;;;;;;;;;;5056086;28;20370;-79
2024/02/27 10:44:20;;;;;;;7.65;6.55;;;;;;;;;;5056045;28;20460;-79
2024/02/27 10:46:47;;;;;;;7.50;6.80;;;;;;;;;;5055720;28;20431;-79
2024/02/27 10:49:13;;;;;;;9.02;8.07;;;;;;;;;;5053519;28;20402;-79
2024/02/27 10:51:40;;;;;;;7.50;6.80;;;;;;;;;;5059652;28;20381;-79
2024/02/27 10:54:06;;;;;;;8.97;7.47;;;;;;;;;;5059938;28;20377;-80
2024/02/27 10:56:32;;;;;;;7.57;6.87;;;;;;;;;;5055479;28;20417;-80
2024/02/27 10:58:59;;;;;;;8.00;7.20;;;;;;;;;;5058794;28;20463;-80
2024/02/27 11:01:27;;;;;;;8.18;7.25;;;;;;;;;;5059062;28;20381;-80
2024/02/27 11:03:54;;;;;;;8.90;8.00;;;;;;;;;;5058916;28;20874;-79
2024/02/27 11:06:27;;;;;;;9.23;8.15;;;;;;;;;;5058451;28;20404;-80
2024/02/27 11:09:12;;;;;;;9.98;7.95;;;;;;;;;;5058800;28;20841;-80
2024/02/27 11:11:38;;;;;;;10.55;8.95;;;;;;;;;;5059002;28;20386;-80
2024/02/27 11:14:08;;;;;;;9.52;8.43;;;;;;;;;;5058561;28;20387;-80
2024/02/27 11:16:37;;;;;;;9.52;8.40;;;;;;;;;;5058521;28;20941;-79
2024/02/27 11:19:07;;;;;;;8.97;8.10;;;;;;;;;;5058463;28;20385;-80
2024/02/27 11:21:33;;;;;;;10.50;8.90;;;;;;;;;;5058147;28;20381;-80
2024/02/27 11:23:59;;;;;;;9.90;8.90;;;;;;;;;;5059031;28;20413;-79
2024/02/27 11:26:26;;;;;;;10.93;9.83;;;;;;;;;;5058183;28;20506;-79
2024/02/27 11:28:52;;;;;;;10.27;9.23;;;;;;;;;;5058636;28;20430;-79
2024/02/27 11:31:20;;;;;;;12.80;10.95;;;;;;;;;;5056800;28;20415;-80
2024/02/27 11:33:53;;;;;;;10.35;9.32;;;;;;;;;;5058158;28;20388;-79
2024/02/27 11:36:19;;;;;;;9.85;8.85;;;;;;;;;;5058215;28;20432;-80
2024/02/27 11:38:45;;;;;;;9.70;8.80;;;;;;;;;;5058702;28;20386;-79
2024/02/27 11:41:17;;;;;;;9.98;9.00;;;;;;;;;;5058124;28;20385;-79
2024/02/27 11:43:50;;;;;;;10.57;9.07;;;;;;;;;;5058158;28;20374;-79
2024/02/27 11:46:34;;;;;;;12.50;9.30;;;;;;;;;;5058612;28;20393;-80
2024/02/27 11:49:01;;;;;;;9.02;8.13;;;;;;;;;;5058323;28;20413;-81
2024/02/27 11:51:30;;;;;;;9.30;8.35;;;;;;;;;;5058534;28;20439;-78
2024/02/27 11:53:56;;;;;;;14.52;12.27;;;;;;;;;;5058523;28;20758;-79
2024/02/27 11:56:22;;;;;;;12.73;10.73;;;;;;;;;;5058673;28;20491;-79
2024/02/27 11:58:49;;;;;;;9.95;8.45;;;;;;;;;;5058336;28;20382;-81
2024/02/27 12:01:16;;;;;;;13.30;11.90;;;;;;;;;;5057888;28;20381;-79
2024/02/27 12:03:45;;;;;;;9.82;8.45;;;;;;;;;;5057457;28;20377;-81
2024/02/27 12:06:12;;;;;;;9.35;8.35;;;;;;;;;;5057986;28;20483;-78
2024/02/27 12:08:48;;;;;;;9.33;8.43;;;;;;;;;;5056707;28;20382;-79
2024/02/27 12:11:19;;;;;;;9.25;8.35;;;;;;;;;;5057465;28;20385;-80
2024/02/27 12:13:46;;;;;;;9.60;8.53;;;;;;;;;;5057910;28;20470;-79
2024/02/27 12:16:21;;;;;;;9.67;8.77;;;;;;;;;;5057137;28;20522;-78
2024/02/27 12:18:47;;;;;;;9.68;8.50;;;;;;;;;;5057547;28;20485;-79
2024/02/27 12:21:13;;;;;;;9.23;8.27;;;;;;;;;;5056020;28;20436;-78
2024/02/27 12:23:40;;;;;;;10.77;9.68;;;;;;;;;;5056967;28;20389;-80
2024/02/27 12:26:06;;;;;;;8.38;7.57;;;;;;;;;;5057350;28;20390;-79
2024/02/27 12:28:32;;;;;;;7.85;6.97;;;;;;;;;;5057144;28;20385;-80
2024/02/27 12:30:58;;;;;;;10.43;9.52;;;;;;;;;;5056957;28;21069;-80
2024/02/27 12:33:24;;;;;;;10.50;9.60;;;;;;;;;;5056913;28;20484;-80
2024/02/27 12:35:50;;;;;;;8.55;7.75;;;;;;;;;;5056570;28;20488;-80
2024/02/27 12:38:16;;;;;;;8.55;7.72;;;;;;;;;;5055740;28;20476;-80
2024/02/27 12:40:43;;;;;;;8.43;7.53;;;;;;;;;;5057863;28;20370;-82
2024/02/27 12:43:09;;;;;;;9.50;8.55;;;;;;;;;;5057510;28;20381;-81
2024/02/27 12:45:35;;;;;;;9.52;8.57;;;;;;;;;;5058270;28;20394;-81
2024/02/27 12:48:03;;;;;;;11.60;8.85;;;;;;;;;;5057203;28;20433;-81
2024/02/27 12:50:29;;;;;;;9.50;8.52;;;;;;;;;;5057253;28;20431;-81
2024/02/27 12:52:58;;;;;;;8.93;8.13;;;;;;;;;;5053947;28;20378;-81
2024/02/27 12:55:24;;;;;;;10.05;8.80;;;;;;;;;;5056512;28;20382;-81
2024/02/27 12:57:54;;;;;;;10.27;9.27;;;;;;;;;;5057089;28;20377;-81
2024/02/27 13:00:23;;;;;;;10.52;9.43;;;;;;;;;;5057230;28;21014;-81
2024/02/27 13:02:55;;;;;;;9.90;8.90;;;;;;;;;;5056959;28;20384;-81
2024/02/27 13:05:22;;;;;;;11.43;9.13;;;;;;;;;;5057368;28;20866;-81
2024/02/27 13:07:48;;;;;;;10.20;9.20;;;;;;;;;;5056972;28;20373;-82
2024/02/27 13:10:20;;;;;;;10.23;9.07;;;;;;;;;;5057240;28;20441;-81
2024/02/27 13:13:07;;;;;;;9.63;8.73;;;;;;;;;;5056869;28;20378;-82
2024/02/27 13:15:33;;;;;;;10.13;9.13;;;;;;;;;;5056627;28;20514;-80
2024/02/27 13:17:59;;;;;;;51.30;26.00;;;;;;;;;;5057050;28;20370;-83
2024/02/27 13:20:25;;;;;;;30.10;16.40;;;;;;;;;;5056855;28;20717;-82
2024/02/27 13:22:51;;;;;;;19.23;13.57;;;;;;;;;;5056654;28;20374;-80
2024/02/27 13:25:17;;;;;;;9.98;9.00;;;;;;;;;;5056070;28;20839;-80
2024/02/27 13:27:45;;;;;;;10.23;9.23;;;;;;;;;;5056309;28;20370;-79
2024/02/27 13:30:11;;;;;;;9.95;9.05;;;;;;;;;;5056142;28;20468;-80
2024/02/27 13:32:38;;;;;;;10.73;9.63;;;;;;;;;;5055653;28;20412;-80
2024/02/27 13:35:04;;;;;;;9.88;8.98;;;;;;;;;;5056552;28;20828;-80
2024/02/27 13:37:30;;;;;;;10.90;9.80;;;;;;;;;;5053979;28;20504;-82
2024/02/27 13:39:56;;;;;;;26.27;18.73;;;;;;;;;;5060738;28;20413;-81
2024/02/27 13:42:22;;;;;;;19.70;15.30;;;;;;;;;;5061726;28;20381;-81
2024/02/27 13:44:48;;;;;;;19.13;16.92;;;;;;;;;;5059437;28;20430;-81
2024/02/27 13:47:14;;;;;;;12.75;11.43;;;;;;;;;;5059839;28;20464;-82
2024/02/27 13:49:40;;;;;;;18.30;14.10;;;;;;;;;;5059354;28;20389;-81
2024/02/27 13:52:06;;;;;;;53.88;27.25;;;;;;;;;;5058497;28;20859;-81
2024/02/27 13:54:32;;;;;;;28.45;17.48;;;;;;;;;;5056991;28;20416;-81
2024/02/27 13:56:58;;;;;;;11.30;10.10;;;;;;;;;;5056664;28;20405;-81
2024/02/27 13:59:24;;;;;;;15.95;12.75;;;;;;;;;;5055944;28;20374;-79
2024/02/27 14:01:50;;;;;;;11.30;10.20;;;;;;;;;;5052483;28;20431;-79
2024/02/27 14:04:16;;;;;;;10.68;9.60;;;;;;;;;;5053233;28;20389;-80
2024/02/27 14:06:43;;;;;;;10.35;9.30;;;;;;;;;;5053740;28;20705;-80
2024/02/27 14:09:09;;;;;;;10.48;9.48;;;;;;;;;;5053862;28;20413;-80
2024/02/27 14:11:35;;;;;;;10.70;9.80;;;;;;;;;;5053751;28;20843;-80
2024/02/27 14:14:01;;;;;;;10.10;9.10;;;;;;;;;;5054172;28;20389;-80
2024/02/27 14:16:27;;;;;;;10.63;9.25;;;;;;;;;;5053467;28;20483;-80
2024/02/27 14:18:54;;;;;;;10.15;9.10;;;;;;;;;;5052183;28;20770;-80
2024/02/27 14:21:20;;;;;;;10.23;8.90;;;;;;;;;;5053624;28;20381;-80
2024/02/27 14:23:46;;;;;;;11.15;8.80;;;;;;;;;;5053677;28;20427;-80
2024/02/27 14:26:12;;;;;;;9.48;8.57;;;;;;;;;;5053436;28;20782;-80
2024/02/27 14:28:38;;;;;;;9.93;8.93;;;;;;;;;;5053573;28;20385;-80
2024/02/27 14:31:04;;;;;;;10.00;9.10;;;;;;;;;;5053888;28;20389;-80
2024/02/27 14:33:30;;;;;;;9.27;8.47;;;;;;;;;;5054003;28;20464;-80
2024/02/27 14:35:56;;;;;;;9.27;8.27;;;;;;;;;;5053765;28;20412;-80
2024/02/27 14:38:22;;;;;;;8.98;8.07;;;;;;;;;;5053526;28;20388;-80
2024/02/27 14:40:49;;;;;;;9.45;8.55;;;;;;;;;;5053705;28;20378;-80